Time;durP1;ratioP1;P1;durP2;ratioP2;P2;SDS_P1;SDS_P2;PMS_P1;PMS_P2;Temp;Humidity;BMP_temperature;BMP_pressure;BME280_temperature;BME280_humidity;BME280_pressure;Samples;Min_cycle;Max_cycle;Signal;HPM_P1;HPM_P2
2021/10/04 10:51:21;;;;;;;6.57;5.83;;;23.80;87.90;;;;;;4782684;30;21347;-91
2021/10/04 10:53:46;;;;;;;10.00;5.93;;;23.80;88.20;;;;;;4780170;29;20488;-92
2021/10/04 10:56:12;;;;;;;6.20;5.13;;;23.80;87.80;;;;;;4803145;24;20249;-92
2021/10/04 10:58:39;;;;;;;7.03;6.00;;;23.90;87.50;;;;;;4805747;29;20216;-87
2021/10/04 11:01:14;;;;;;;9.93;6.17;;;23.90;88.50;;;;;;4795466;24;20244;-70
2021/10/04 11:03:50;;;;;;;8.73;6.60;;;24.00;87.30;;;;;;4777207;29;20727;-70
2021/10/04 11:06:16;;;;;;;8.13;6.13;;;24.10;88.50;;;;;;4782935;29;20456;-71
2021/10/04 11:08:47;;;;;;;9.57;6.90;;;24.10;87.60;;;;;;4782726;29;20441;-70
2021/10/04 11:11:15;;;;;;;10.60;6.20;;;24.10;87.40;;;;;;4790177;29;20478;-72
2021/10/04 11:13:59;;;;;;;9.50;6.40;;;24.20;87.30;;;;;;4779952;29;20441;-71
2021/10/04 11:16:26;;;;;;;6.90;6.07;;;24.20;87.10;;;;;;4776280;29;20551;-72
2021/10/04 11:18:55;;;;;;;11.57;6.10;;;24.20;87.50;;;;;;4777436;29;20567;-71
2021/10/04 11:21:25;;;;;;;10.30;6.37;;;24.20;88.20;;;;;;4786407;29;20220;-71
2021/10/04 11:23:55;;;;;;;9.50;6.40;;;24.30;87.80;;;;;;4790590;29;21011;-71
2021/10/04 11:26:31;;;;;;;8.60;5.67;;;24.30;87.60;;;;;;4789787;29;20522;-71
2021/10/04 11:29:02;;;;;;;6.33;5.73;;;24.30;87.30;;;;;;4778503;29;20486;-72
2021/10/04 11:31:31;;;;;;;8.47;6.23;;;24.40;87.30;;;;;;4782517;29;20491;-71
2021/10/04 11:34:01;;;;;;;6.13;5.50;;;24.40;86.80;;;;;;4776533;29;20465;-72
2021/10/04 11:36:41;;;;;;;7.23;6.43;;;24.40;86.70;;;;;;4776518;29;21189;-72
2021/10/04 11:39:16;;;;;;;6.97;6.37;;;24.50;86.80;;;;;;4782380;29;21025;-71
2021/10/04 11:41:57;;;;;;;7.67;5.93;;;24.50;85.50;;;;;;4781756;29;20456;-71
2021/10/04 11:44:27;;;;;;;7.10;6.20;;;24.50;86.30;;;;;;4779584;29;22357;-71
2021/10/04 11:47:00;;;;;;;8.07;6.40;;;24.50;86.50;;;;;;4778765;29;20493;-72
2021/10/04 11:49:43;;;;;;;7.70;6.80;;;24.50;87.70;;;;;;4790001;29;20466;-71
2021/10/04 11:52:17;;;;;;;9.70;5.70;;;24.60;87.30;;;;;;4774823;29;20496;-71
2021/10/04 11:54:50;;;;;;;6.70;5.67;;;24.60;87.10;;;;;;4776595;29;20491;-71
2021/10/04 11:57:35;;;;;;;11.57;6.70;;;24.70;86.30;;;;;;4775654;29;20461;-71
2021/10/04 12:00:09;;;;;;;6.70;5.73;;;24.70;86.10;;;;;;4777478;29;20544;-72
2021/10/04 12:02:45;;;;;;;9.10;5.67;;;24.70;85.70;;;;;;4774020;29;20437;-71
2021/10/04 12:05:21;;;;;;;10.30;6.10;;;24.80;86.50;;;;;;4784786;29;20489;-71
2021/10/04 12:08:09;;;;;;;7.90;6.60;;;24.80;85.70;;;;;;4783721;29;20544;-71
2021/10/04 12:10:42;;;;;;;10.33;5.77;;;24.80;85.80;;;;;;4781614;29;20484;-72
2021/10/04 12:13:13;;;;;;;8.73;6.30;;;24.90;85.80;;;;;;4795150;29;20917;-71
2021/10/04 12:15:41;;;;;;;8.10;6.40;;;24.90;85.90;;;;;;4781273;29;20488;-70
2021/10/04 12:18:12;;;;;;;8.43;6.10;;;24.90;86.10;;;;;;4781103;29;20435;-71
2021/10/04 12:20:41;;;;;;;8.67;6.37;;;25.00;85.20;;;;;;4782803;29;20490;-71
2021/10/04 12:23:18;;;;;;;7.10;6.40;;;25.00;85.70;;;;;;4779622;29;20866;-71
2021/10/04 12:25:50;;;;;;;7.33;6.30;;;25.00;86.70;;;;;;4794828;29;20471;-71
2021/10/04 12:28:18;;;;;;;6.80;6.07;;;25.10;86.40;;;;;;4785816;29;20472;-70
2021/10/04 12:30:55;;;;;;;7.87;5.90;;;25.10;86.20;;;;;;4782033;29;20810;-71
2021/10/04 12:33:42;;;;;;;8.50;6.17;;;25.10;85.50;;;;;;4792535;29;20557;-71
2021/10/04 12:36:42;;;;;;;6.00;5.40;;;25.20;85.20;;;;;;4783764;30;20500;-71
2021/10/04 12:39:43;;;;;;;7.00;6.30;;;25.20;85.50;;;;;;4780479;29;20478;-71
2021/10/04 12:42:09;;;;;;;6.60;5.50;;;25.20;85.90;;;;;;4779852;29;20446;-71
2021/10/04 12:44:41;;;;;;;10.83;6.53;;;25.20;84.80;;;;;;4781048;29;20482;-71
2021/10/04 12:47:12;;;;;;;8.30;7.20;;;25.30;86.00;;;;;;4783643;29;20469;-71
2021/10/04 12:49:39;;;;;;;10.43;6.23;;;25.30;85.20;;;;;;4788240;29;20485;-71
2021/10/04 12:52:18;;;;;;;8.20;6.23;;;25.30;84.60;;;;;;4777827;29;20491;-71
2021/10/04 12:54:50;;;;;;;7.17;6.47;;;25.30;84.60;;;;;;4780640;30;20485;-70
2021/10/04 12:57:28;;;;;;;8.97;7.40;;;25.30;84.90;;;;;;4782596;29;20454;-71
2021/10/04 13:00:06;;;;;;;8.37;7.20;;;25.40;85.50;;;;;;4787149;30;20494;-71
2021/10/04 13:02:35;;;;;;;12.67;7.60;;;25.40;84.30;;;;;;4775593;29;20455;-71
2021/10/04 13:05:06;;;;;;;7.90;6.50;;;25.50;84.30;;;;;;4783795;29;20482;-71
2021/10/04 13:07:35;;;;;;;10.60;7.20;;;25.50;84.60;;;;;;4780028;29;20447;-71
2021/10/04 13:10:05;;;;;;;7.27;6.57;;;25.50;84.70;;;;;;4791436;29;20530;-70
2021/10/04 13:12:43;;;;;;;9.63;6.70;;;25.50;84.40;;;;;;4789334;29;20830;-70
2021/10/04 13:15:10;;;;;;;10.90;6.53;;;25.50;84.30;;;;;;4793636;29;20479;-72
2021/10/04 13:17:38;;;;;;;9.73;6.27;;;25.60;83.80;;;;;;4786720;29;20427;-71
2021/10/04 13:20:06;;;;;;;7.50;6.80;;;25.60;84.30;;;;;;4784238;29;20569;-71
2021/10/04 13:22:49;;;;;;;7.07;6.37;;;25.60;83.90;;;;;;4788020;29;20530;-71
2021/10/04 13:28:56;;;;;;;8.10;6.60;;;25.60;84.10;;;;;;4784076;29;20598;-71
2021/10/04 13:31:22;;;;;;;8.27;6.67;;;25.60;83.90;;;;;;4781660;29;20547;-71
2021/10/04 13:33:50;;;;;;;10.80;7.20;;;25.60;83.60;;;;;;4796276;29;20446;-71
2021/10/04 13:36:18;;;;;;;10.97;6.00;;;25.60;83.90;;;;;;4782283;29;20727;-72
2021/10/04 13:38:44;;;;;;;8.10;6.50;;;25.70;84.60;;;;;;4786694;29;20944;-71
2021/10/04 13:41:12;;;;;;;7.97;6.60;;;25.70;84.60;;;;;;4776879;29;20470;-71
2021/10/04 13:43:38;;;;;;;9.20;6.70;;;25.70;83.30;;;;;;4785879;29;20446;-71
2021/10/04 13:46:06;;;;;;;7.50;6.80;;;25.80;83.40;;;;;;4802527;29;20490;-71
2021/10/04 13:48:36;;;;;;;8.97;6.43;;;25.80;84.10;;;;;;4786423;29;20522;-71
2021/10/04 13:51:04;;;;;;;6.50;5.90;;;25.80;82.80;;;;;;4785620;29;20463;-71
2021/10/04 13:53:31;;;;;;;7.40;6.70;;;25.80;83.20;;;;;;4785448;29;20567;-71
2021/10/04 13:56:01;;;;;;;9.23;6.73;;;25.80;83.50;;;;;;4788237;29;20454;-71
2021/10/04 13:58:29;;;;;;;8.10;5.83;;;25.80;83.50;;;;;;4777217;29;20490;-71
2021/10/04 14:00:56;;;;;;;7.00;6.23;;;25.80;83.40;;;;;;4789350;29;20630;-70
2021/10/04 14:03:27;;;;;;;6.73;6.13;;;25.80;83.20;;;;;;4790113;29;20442;-71
2021/10/04 14:05:58;;;;;;;9.37;7.10;;;25.80;83.40;;;;;;4798376;29;20744;-71
2021/10/04 14:08:31;;;;;;;8.73;6.67;;;25.80;83.50;;;;;;4787393;29;20438;-70
2021/10/04 14:11:00;;;;;;;9.23;6.20;;;25.80;82.40;;;;;;4801354;29;20851;-70
2021/10/04 14:13:27;;;;;;;9.70;7.13;;;25.80;82.60;;;;;;4795701;29;20566;-71
2021/10/04 14:15:55;;;;;;;7.90;7.10;;;25.80;82.80;;;;;;4783823;29;21055;-70
2021/10/04 14:18:22;;;;;;;9.87;6.70;;;25.80;82.80;;;;;;4798496;29;21013;-70
2021/10/04 14:20:53;;;;;;;10.70;6.90;;;25.80;82.70;;;;;;4792539;29;20478;-70
2021/10/04 14:23:21;;;;;;;10.23;6.93;;;25.80;82.90;;;;;;4791377;29;20451;-71
2021/10/04 14:25:49;;;;;;;8.90;5.83;;;25.80;82.80;;;;;;4788290;29;20550;-70
2021/10/04 14:28:18;;;;;;;8.40;7.60;;;25.80;82.60;;;;;;4775328;29;20452;-72
2021/10/04 14:30:56;;;;;;;8.00;6.80;;;25.70;82.80;;;;;;4797852;29;20491;-71
2021/10/04 14:33:26;;;;;;;8.67;6.83;;;25.70;83.70;;;;;;4775852;29;20514;-70
2021/10/04 14:35:53;;;;;;;8.97;7.73;;;25.70;82.40;;;;;;4777676;30;20483;-71
2021/10/04 14:38:20;;;;;;;6.97;6.27;;;25.70;82.60;;;;;;4791195;29;20438;-72
2021/10/04 14:40:46;;;;;;;9.50;7.23;;;25.70;83.10;;;;;;4792928;29;20473;-70
2021/10/04 14:43:19;;;;;;;10.00;7.53;;;25.70;83.20;;;;;;4797843;29;20437;-70
2021/10/04 14:45:45;;;;;;;7.60;6.90;;;25.70;82.70;;;;;;4785530;29;20475;-70
2021/10/04 14:48:12;;;;;;;10.50;7.40;;;25.70;82.80;;;;;;4789180;29;20508;-71
2021/10/04 14:50:40;;;;;;;9.07;7.73;;;25.70;83.00;;;;;;4786238;29;20526;-70
2021/10/04 14:53:06;;;;;;;9.87;8.00;;;25.70;83.20;;;;;;4788424;29;20853;-70
2021/10/04 14:55:35;;;;;;;8.73;7.83;;;25.70;83.70;;;;;;4781113;29;21070;-69
2021/10/04 14:58:02;;;;;;;8.40;7.60;;;25.60;84.30;;;;;;4787559;29;21042;-70
2021/10/04 15:00:28;;;;;;;10.30;8.10;;;25.60;84.00;;;;;;4798559;29;20534;-70
2021/10/04 15:02:56;;;;;;;9.97;8.60;;;25.60;84.10;;;;;;4789943;29;20459;-71
2021/10/04 15:05:33;;;;;;;10.17;8.73;;;25.60;84.10;;;;;;4796859;29;21024;-70
2021/10/04 15:08:02;;;;;;;11.47;7.83;;;25.50;84.30;;;;;;4799720;29;20441;-70
2021/10/04 15:10:31;;;;;;;9.70;7.60;;;25.50;84.30;;;;;;4799050;29;20481;-70
2021/10/04 15:12:58;;;;;;;10.40;8.10;;;25.40;84.50;;;;;;4793461;29;20496;-70
2021/10/04 15:15:24;;;;;;;12.07;7.70;;;25.40;84.70;;;;;;4786923;29;20478;-71
2021/10/04 15:17:51;;;;;;;8.43;7.07;;;25.30;84.40;;;;;;4791672;29;20530;-71
2021/10/04 15:20:18;;;;;;;9.93;8.53;;;25.30;84.30;;;;;;4788370;29;20486;-70
2021/10/04 15:22:44;;;;;;;8.40;6.93;;;25.30;84.30;;;;;;4794470;29;20434;-70
2021/10/04 15:25:12;;;;;;;13.40;7.90;;;25.20;84.30;;;;;;4791659;29;20570;-70
2021/10/04 15:27:51;;;;;;;9.67;7.70;;;25.10;84.50;;;;;;4800111;29;20495;-70
2021/10/04 15:30:18;;;;;;;12.17;7.87;;;25.10;84.50;;;;;;4794359;29;20472;-69
2021/10/04 15:32:45;;;;;;;12.20;7.90;;;25.00;84.40;;;;;;4793704;29;20491;-71
2021/10/04 15:35:12;;;;;;;12.10;7.27;;;25.00;84.50;;;;;;4799097;29;20489;-70
2021/10/04 15:37:38;;;;;;;9.60;7.20;;;24.90;84.60;;;;;;4804986;29;20429;-70
2021/10/04 15:40:04;;;;;;;10.20;7.70;;;24.80;84.60;;;;;;4799430;29;20987;-70
2021/10/04 15:42:37;;;;;;;10.33;8.00;;;24.80;84.80;;;;;;4797519;29;20426;-71
2021/10/04 15:45:07;;;;;;;10.40;8.57;;;24.70;84.90;;;;;;4796583;29;20486;-70
2021/10/04 15:47:33;;;;;;;15.03;10.50;;;24.60;84.90;;;;;;4795720;29;20436;-70
2021/10/04 15:50:00;;;;;;;12.00;10.07;;;24.60;85.10;;;;;;4796342;29;20913;-70
2021/10/04 15:52:35;;;;;;;15.07;10.30;;;24.50;85.20;;;;;;4790752;29;20533;-70
2021/10/04 15:55:05;;;;;;;14.70;11.27;;;24.40;85.30;;;;;;4800924;29;21004;-71
2021/10/04 15:57:33;;;;;;;13.67;10.90;;;24.40;85.50;;;;;;4789953;29;20437;-70
2021/10/04 16:00:00;;;;;;;16.73;12.10;;;24.30;85.70;;;;;;4794557;29;20499;-71
2021/10/04 16:02:28;;;;;;;14.10;11.97;;;24.20;85.80;;;;;;4803022;29;20444;-70
2021/10/04 16:04:55;;;;;;;30.63;12.73;;;24.20;86.20;;;;;;4796777;29;21105;-70
2021/10/04 16:07:27;;;;;;;16.50;10.40;;;24.10;87.30;;;;;;4795753;29;20442;-69
2021/10/04 16:09:57;;;;;;;11.93;8.10;;;24.00;87.20;;;;;;4788043;29;20472;-70
2021/10/04 16:12:24;;;;;;;36.30;13.80;;;24.00;87.10;;;;;;4787555;30;21001;-70
2021/10/04 16:14:50;;;;;;;13.37;9.13;;;23.90;87.50;;;;;;4785812;30;20475;-70
2021/10/04 16:17:26;;;;;;;10.70;8.77;;;23.80;87.70;;;;;;4785911;30;20791;-71
2021/10/04 16:19:57;;;;;;;9.77;7.60;;;23.80;88.00;;;;;;4786792;30;20889;-70
2021/10/04 16:22:28;;;;;;;11.37;8.30;;;23.70;87.80;;;;;;4787861;30;20434;-70
2021/10/04 16:24:54;;;;;;;20.30;9.73;;;23.60;87.80;;;;;;4787813;29;20544;-71
2021/10/04 16:27:23;;;;;;;17.10;9.83;;;23.60;90.30;;;;;;4787796;30;20947;-70
2021/10/04 16:29:51;;;;;;;18.83;10.67;;;23.50;91.00;;;;;;4787486;30;20482;-71
2021/10/04 16:32:18;;;;;;;21.20;10.43;;;23.40;91.10;;;;;;4787377;30;21078;-71
2021/10/04 16:34:44;;;;;;;24.80;9.87;;;23.40;90.90;;;;;;4787554;30;20593;-71
2021/10/04 16:37:12;;;;;;;14.47;10.70;;;23.30;91.10;;;;;;4787540;30;20486;-70
2021/10/04 16:39:39;;;;;;;15.73;10.93;;;23.20;91.40;;;;;;4787719;30;21052;-71
2021/10/04 16:42:09;;;;;;;19.20;16.90;;;23.10;92.00;;;;;;4787629;30;20448;-70
2021/10/04 16:44:35;;;;;;;22.80;14.97;;;23.00;92.20;;;;;;4787695;29;20478;-71
2021/10/04 16:47:03;;;;;;;20.63;18.40;;;22.90;92.60;;;;;;4787624;29;20451;-70
2021/10/04 16:49:32;;;;;;;22.30;16.40;;;22.80;92.90;;;;;;4787626;30;20550;-70
2021/10/04 16:52:04;;;;;;;19.63;14.73;;;22.80;93.00;;;;;;4787377;30;20996;-71
2021/10/04 16:54:30;;;;;;;17.87;13.33;;;22.70;93.30;;;;;;4787438;30;20570;-70
2021/10/04 16:56:59;;;;;;;14.87;12.80;;;22.60;93.60;;;;;;4787512;30;20503;-71
2021/10/04 16:59:25;;;;;;;12.13;9.83;;;22.50;93.90;;;;;;4787033;30;20474;-71
2021/10/04 17:01:54;;;;;;;16.33;9.23;;;22.40;93.30;;;;;;4787430;30;20415;-71
2021/10/04 17:04:21;;;;;;;11.23;9.73;;;22.30;92.70;;;;;;4787368;30;20454;-71
2021/10/04 17:06:52;;;;;;;14.20;10.23;;;22.30;92.20;;;;;;4787572;30;20429;-70
2021/10/04 17:09:19;;;;;;;10.90;9.80;;;22.20;91.90;;;;;;4787398;30;20984;-71
2021/10/04 17:11:49;;;;;;;11.10;9.97;;;22.20;92.10;;;;;;4787303;30;20511;-70
2021/10/04 17:14:15;;;;;;;14.43;9.50;;;22.20;91.70;;;;;;4787333;30;20447;-70
2021/10/04 17:16:43;;;;;;;12.33;10.13;;;22.20;91.50;;;;;;4787246;30;20438;-70
2021/10/04 17:19:12;;;;;;;11.53;9.53;;;22.10;91.50;;;;;;4787475;29;20538;-70
2021/10/04 17:21:40;;;;;;;18.00;9.40;;;22.10;91.50;;;;;;4787610;30;20442;-71
2021/10/04 17:24:06;;;;;;;17.43;9.07;;;22.10;91.30;;;;;;4787099;30;20471;-69
2021/10/04 17:26:36;;;;;;;11.30;7.40;;;22.00;91.30;;;;;;4788279;30;20423;-70
2021/10/04 17:29:02;;;;;;;11.17;8.30;;;22.00;91.20;;;;;;4787186;30;20821;-71
2021/10/04 17:31:37;;;;;;;11.77;7.73;;;22.00;91.20;;;;;;4786997;29;20455;-70
2021/10/04 17:34:04;;;;;;;10.10;7.67;;;21.90;91.10;;;;;;4786934;30;20492;-70
2021/10/04 17:36:32;;;;;;;10.97;7.57;;;21.90;91.10;;;;;;4787122;30;20511;-71
2021/10/04 17:39:00;;;;;;;12.70;7.90;;;21.80;91.00;;;;;;4786949;30;20435;-70
2021/10/04 17:41:28;;;;;;;9.00;7.57;;;21.80;90.90;;;;;;4786985;30;20462;-70
2021/10/04 17:43:55;;;;;;;10.40;8.57;;;21.80;90.90;;;;;;4787593;29;20443;-70
2021/10/04 17:46:21;;;;;;;13.07;8.70;;;21.80;90.90;;;;;;4790459;30;20455;-70
2021/10/04 17:48:48;;;;;;;13.70;9.03;;;21.70;90.90;;;;;;4790314;30;20427;-71
2021/10/04 17:51:15;;;;;;;14.60;8.90;;;21.70;91.10;;;;;;4790205;30;20483;-70
2021/10/04 17:53:45;;;;;;;15.90;9.50;;;21.70;90.80;;;;;;4790204;30;20899;-70
2021/10/04 17:56:12;;;;;;;15.17;9.13;;;21.60;90.80;;;;;;4790165;30;20447;-71
2021/10/04 17:58:40;;;;;;;16.10;9.50;;;21.60;90.70;;;;;;4789985;30;20952;-70
2021/10/04 18:01:06;;;;;;;11.47;8.83;;;21.50;90.70;;;;;;4789699;30;20845;-71
2021/10/04 18:03:35;;;;;;;9.93;7.37;;;21.50;90.70;;;;;;4779145;29;20451;-70
2021/10/04 18:06:04;;;;;;;9.73;7.63;;;21.50;91.00;;;;;;4770896;30;20471;-70
2021/10/04 18:08:31;;;;;;;13.10;8.10;;;21.50;90.60;;;;;;4769988;30;20436;-70
2021/10/04 18:10:59;;;;;;;10.17;7.37;;;21.40;90.60;;;;;;4771967;30;20448;-70
2021/10/04 18:13:26;;;;;;;11.60;7.13;;;21.40;90.50;;;;;;4772060;30;20864;-71
2021/10/04 18:15:52;;;;;;;14.40;8.17;;;21.40;90.60;;;;;;4771903;30;20468;-70
2021/10/04 18:18:20;;;;;;;8.70;7.50;;;21.40;90.60;;;;;;4772224;30;20997;-70
2021/10/04 18:20:51;;;;;;;9.60;6.70;;;21.40;90.50;;;;;;4773133;30;20888;-70
2021/10/04 18:23:18;;;;;;;12.73;7.77;;;21.40;90.50;;;;;;4786953;29;20518;-71
2021/10/04 18:25:45;;;;;;;9.73;7.27;;;21.30;90.40;;;;;;4772001;30;20546;-70
2021/10/04 18:28:13;;;;;;;7.73;6.87;;;21.30;90.50;;;;;;4772233;30;20997;-70
2021/10/04 18:30:41;;;;;;;10.13;7.53;;;21.30;90.50;;;;;;4771867;30;20448;-69
2021/10/04 18:33:12;;;;;;;9.20;7.00;;;21.20;90.50;;;;;;4771791;30;20482;-70
2021/10/04 18:35:39;;;;;;;11.17;7.20;;;21.20;90.50;;;;;;4771850;30;20539;-70
2021/10/04 18:38:10;;;;;;;9.90;7.20;;;21.20;90.60;;;;;;4771808;30;20808;-70
2021/10/04 18:40:37;;;;;;;13.07;8.30;;;21.10;90.60;;;;;;4771519;30;20625;-70
2021/10/04 18:43:03;;;;;;;9.67;8.07;;;21.10;90.70;;;;;;4771875;30;20793;-70
2021/10/04 18:45:38;;;;;;;13.17;8.13;;;21.10;90.80;;;;;;4771511;30;20529;-70
2021/10/04 18:48:05;;;;;;;11.73;8.50;;;21.10;90.70;;;;;;4771510;30;20509;-70
2021/10/04 18:50:35;;;;;;;13.77;8.77;;;21.00;90.60;;;;;;4771665;30;20467;-70
2021/10/04 18:53:04;;;;;;;12.33;9.10;;;21.00;90.60;;;;;;4771648;30;20491;-71
2021/10/04 18:55:31;;;;;;;13.47;9.20;;;20.90;90.70;;;;;;4771440;30;20455;-70
2021/10/04 18:58:00;;;;;;;14.50;9.03;;;20.90;91.00;;;;;;4771274;30;20819;-71
2021/10/04 19:00:27;;;;;;;11.80;8.00;;;20.80;90.60;;;;;;4771013;30;20519;-70
2021/10/04 19:02:54;;;;;;;9.00;7.90;;;20.80;90.60;;;;;;4771179;30;20434;-71
2021/10/04 19:05:21;;;;;;;13.40;8.70;;;20.70;90.90;;;;;;4771335;30;20528;-70
2021/10/04 19:07:48;;;;;;;12.33;7.40;;;20.70;90.70;;;;;;4771071;30;20432;-71
2021/10/04 19:10:15;;;;;;;8.97;7.50;;;20.60;90.70;;;;;;4771389;30;20973;-70
2021/10/04 19:12:41;;;;;;;10.70;8.10;;;20.50;90.70;;;;;;4770961;30;20487;-70
2021/10/04 19:15:10;;;;;;;10.70;8.13;;;20.50;90.80;;;;;;4771013;30;20558;-70
2021/10/04 19:17:37;;;;;;;12.47;8.40;;;20.40;90.90;;;;;;4771003;30;20443;-70
2021/10/04 19:20:05;;;;;;;12.13;7.33;;;20.30;90.90;;;;;;4771089;30;20569;-71
2021/10/04 19:22:32;;;;;;;10.50;7.90;;;20.30;91.10;;;;;;4770718;30;20459;-70
2021/10/04 19:24:58;;;;;;;13.90;8.53;;;20.20;91.00;;;;;;4770938;30;20514;-70
2021/10/04 19:27:29;;;;;;;11.83;8.40;;;20.20;91.20;;;;;;4771076;30;20964;-70
2021/10/04 19:29:55;;;;;;;10.53;8.40;;;20.10;91.20;;;;;;4785758;30;20483;-71
2021/10/04 19:32:23;;;;;;;12.93;8.03;;;20.10;91.30;;;;;;4770740;30;20489;-70
2021/10/04 19:34:50;;;;;;;11.00;7.60;;;20.00;91.70;;;;;;4785532;30;20484;-70
2021/10/04 19:37:19;;;;;;;11.13;8.27;;;20.00;91.40;;;;;;4770635;30;20428;-70
2021/10/04 19:39:47;;;;;;;8.63;7.37;;;19.90;91.50;;;;;;4770687;30;20569;-70
2021/10/04 19:42:17;;;;;;;14.23;8.17;;;19.80;91.60;;;;;;4770602;30;20431;-70
2021/10/04 19:44:44;;;;;;;9.13;8.10;;;19.80;91.70;;;;;;4770527;30;20479;-70
2021/10/04 19:47:10;;;;;;;11.03;8.40;;;19.70;91.80;;;;;;4770782;30;20429;-69
2021/10/04 19:49:42;;;;;;;15.43;8.40;;;19.60;91.90;;;;;;4770297;30;20915;-70
2021/10/04 19:52:11;;;;;;;11.70;8.87;;;19.60;91.90;;;;;;4770336;30;21059;-70
2021/10/04 19:54:48;;;;;;;9.60;8.40;;;19.50;92.00;;;;;;4770340;30;20970;-70
2021/10/04 19:57:14;;;;;;;16.10;9.00;;;19.40;92.10;;;;;;4770395;30;20480;-70
2021/10/04 19:59:41;;;;;;;12.93;9.13;;;19.40;92.20;;;;;;4769990;30;20497;-70
2021/10/04 20:02:07;;;;;;;11.53;8.60;;;19.30;92.30;;;;;;4770168;30;20436;-70
2021/10/04 20:04:35;;;;;;;11.13;8.87;;;19.20;92.40;;;;;;4770100;30;20469;-70
2021/10/04 20:07:01;;;;;;;11.50;7.80;;;19.20;92.50;;;;;;4769535;30;20483;-69
2021/10/04 20:09:28;;;;;;;12.20;9.00;;;19.10;92.60;;;;;;4769969;30;20472;-70
2021/10/04 20:11:55;;;;;;;12.87;9.57;;;19.10;92.70;;;;;;4771308;30;20472;-70
2021/10/04 20:14:25;;;;;;;11.63;8.53;;;19.00;92.80;;;;;;4769740;30;20551;-70
2021/10/04 20:16:53;;;;;;;16.60;9.30;;;18.90;92.90;;;;;;4769915;30;20938;-70
2021/10/04 20:19:19;;;;;;;13.40;8.97;;;18.90;93.00;;;;;;4769891;30;20448;-70
2021/10/04 20:21:45;;;;;;;12.90;8.37;;;18.80;93.10;;;;;;4769830;30;20465;-70
2021/10/04 20:24:36;;;;;;;14.87;8.43;;;18.70;93.10;;;;;;4769726;30;20437;-70
2021/10/04 20:27:06;;;;;;;10.27;8.03;;;18.60;93.20;;;;;;4769863;30;20928;-70
2021/10/04 20:29:33;;;;;;;9.53;7.80;;;18.50;93.30;;;;;;4769959;30;20798;-71
2021/10/04 20:32:05;;;;;;;13.50;8.60;;;18.50;93.30;;;;;;4770064;30;21074;-69
2021/10/04 20:34:33;;;;;;;9.30;7.70;;;18.40;93.30;;;;;;4769833;30;20815;-70
2021/10/04 20:37:03;;;;;;;9.23;7.70;;;18.40;93.40;;;;;;4769683;30;20439;-71
2021/10/04 20:39:30;;;;;;;10.30;7.80;;;18.40;93.30;;;;;;4769846;30;20470;-70
2021/10/04 20:41:59;;;;;;;10.93;7.60;;;18.40;93.30;;;;;;4769806;30;20489;-70
2021/10/04 20:44:26;;;;;;;10.93;8.20;;;18.40;93.40;;;;;;4769693;30;20895;-70
2021/10/04 20:46:53;;;;;;;9.27;7.73;;;18.30;93.30;;;;;;4769718;30;20440;-70
2021/10/04 20:49:19;;;;;;;10.20;7.77;;;18.30;93.30;;;;;;4769550;30;20483;-71
2021/10/04 20:51:46;;;;;;;9.73;7.90;;;18.30;93.40;;;;;;4769717;30;20938;-70
2021/10/04 20:54:13;;;;;;;9.77;7.23;;;18.30;93.30;;;;;;4769514;30;20807;-70
2021/10/04 20:56:42;;;;;;;11.80;8.43;;;18.30;93.30;;;;;;4784975;30;20442;-70
2021/10/04 20:59:12;;;;;;;13.20;8.67;;;18.30;93.20;;;;;;4769893;30;20428;-70
2021/10/04 21:01:39;;;;;;;10.10;7.90;;;18.30;93.20;;;;;;4769699;30;20452;-70
2021/10/04 21:04:06;;;;;;;14.00;7.87;;;18.30;93.00;;;;;;4769732;30;20945;-70
2021/10/04 21:06:32;;;;;;;11.70;8.33;;;18.30;93.10;;;;;;4769480;30;20449;-70
2021/10/04 21:08:58;;;;;;;12.00;8.63;;;18.30;93.10;;;;;;4769555;30;20425;-70
2021/10/04 21:11:24;;;;;;;11.73;8.70;;;18.30;93.10;;;;;;4769528;30;20465;-70
2021/10/04 21:13:50;;;;;;;11.80;8.07;;;18.30;93.10;;;;;;4769611;30;21095;-71
2021/10/04 21:16:16;;;;;;;9.73;8.07;;;18.30;93.00;;;;;;4769608;30;20460;-71
2021/10/04 21:18:43;;;;;;;12.60;8.33;;;18.30;93.10;;;;;;4770047;30;20461;-71
2021/10/04 21:21:09;;;;;;;8.30;7.20;;;18.30;93.00;;;;;;4772912;30;20461;-70
2021/10/04 21:23:37;;;;;;;9.37;8.30;;;18.30;93.10;;;;;;4773267;30;20443;-71
2021/10/04 21:26:05;;;;;;;10.93;8.33;;;18.20;93.00;;;;;;4772793;30;20467;-71
2021/10/04 21:28:31;;;;;;;12.03;8.23;;;18.30;93.00;;;;;;4772721;30;20791;-71
2021/10/04 21:30:58;;;;;;;8.60;7.20;;;18.20;93.00;;;;;;4772656;30;20468;-70
2021/10/04 21:33:25;;;;;;;11.10;7.27;;;18.20;93.00;;;;;;4772753;30;20864;-70
2021/10/04 21:35:52;;;;;;;7.67;6.87;;;18.20;93.00;;;;;;4772542;30;20893;-70
2021/10/04 21:38:20;;;;;;;9.50;7.30;;;18.20;93.00;;;;;;4772734;30;20433;-70
2021/10/04 21:40:49;;;;;;;8.83;7.90;;;18.10;93.40;;;;;;4772613;30;20529;-71
2021/10/04 21:43:16;;;;;;;10.20;8.13;;;18.10;93.10;;;;;;4772549;30;20432;-70
2021/10/04 21:45:43;;;;;;;8.50;7.57;;;18.20;93.20;;;;;;4772598;30;20467;-71
2021/10/04 21:48:10;;;;;;;10.30;7.77;;;18.20;93.20;;;;;;4772639;30;20440;-71
2021/10/04 21:50:36;;;;;;;10.33;8.80;;;18.20;93.20;;;;;;4772718;30;20487;-71
2021/10/04 21:53:04;;;;;;;8.47;7.67;;;18.10;93.00;;;;;;4772344;30;20570;-70
2021/10/04 21:55:30;;;;;;;10.70;8.67;;;18.10;93.00;;;;;;4772575;30;20509;-71
2021/10/04 21:57:57;;;;;;;10.13;8.07;;;18.10;93.00;;;;;;4772238;30;20436;-71
2021/10/04 22:03:14;;;;;;;10.60;9.43;;;18.00;93.10;;;;;;4773901;30;20408;-71
2021/10/04 22:10:58;;;;;;;11.53;8.97;;;17.80;93.30;;;;;;4774104;30;20223;-70
2021/10/04 22:13:29;;;;;;;11.50;8.70;;;17.80;93.40;;;;;;4787020;30;21058;-70
2021/10/04 22:15:57;;;;;;;16.03;8.83;;;17.70;93.40;;;;;;4772084;30;20448;-70
2021/10/04 22:18:24;;;;;;;10.60;7.97;;;17.70;93.50;;;;;;4772046;30;20550;-70
2021/10/04 22:20:53;;;;;;;11.67;8.70;;;17.70;93.50;;;;;;4771880;30;20460;-70
2021/10/04 22:23:19;;;;;;;9.00;8.10;;;17.70;93.50;;;;;;4771955;30;20437;-70
2021/10/04 22:25:46;;;;;;;10.60;8.73;;;17.70;93.50;;;;;;4772023;30;20510;-70
2021/10/04 22:28:13;;;;;;;11.50;9.30;;;17.70;93.60;;;;;;4771783;30;20523;-71
2021/10/04 22:30:40;;;;;;;11.03;9.47;;;17.60;93.60;;;;;;4771570;30;20487;-70
2021/10/04 22:33:09;;;;;;;14.07;8.80;;;17.60;93.60;;;;;;4771748;30;20480;-70
2021/10/04 22:35:36;;;;;;;12.07;9.57;;;17.60;93.70;;;;;;4786698;30;20479;-70
2021/10/04 22:38:06;;;;;;;11.17;9.40;;;17.60;93.80;;;;;;4771677;30;20529;-70
2021/10/04 22:40:32;;;;;;;14.03;9.70;;;17.60;93.90;;;;;;4771530;30;20622;-70
2021/10/04 22:42:59;;;;;;;9.50;8.50;;;17.60;94.00;;;;;;4771863;30;20985;-71
2021/10/04 22:45:26;;;;;;;11.87;8.40;;;17.60;93.90;;;;;;4771828;30;20574;-71
2021/10/04 22:48:00;;;;;;;13.50;9.80;;;17.50;94.00;;;;;;4771465;30;20433;-71
2021/10/04 22:50:26;;;;;;;10.70;8.40;;;17.50;94.10;;;;;;4773258;30;20488;-70
2021/10/04 22:52:55;;;;;;;9.87;8.83;;;17.40;94.00;;;;;;4771207;30;20522;-70
2021/10/04 22:55:21;;;;;;;12.20;9.57;;;17.30;94.20;;;;;;4771644;30;20965;-70
2021/10/04 22:57:48;;;;;;;9.63;8.53;;;17.20;94.30;;;;;;4771283;30;20445;-70
2021/10/04 23:00:14;;;;;;;13.90;9.67;;;17.20;94.70;;;;;;4770966;30;20487;-71
2021/10/04 23:02:41;;;;;;;13.83;9.50;;;17.10;94.40;;;;;;4771217;30;20432;-71
2021/10/04 23:05:07;;;;;;;17.77;8.87;;;17.00;94.40;;;;;;4771378;30;20502;-71
2021/10/04 23:07:35;;;;;;;10.53;9.13;;;17.00;94.50;;;;;;4771226;30;20428;-71
2021/10/04 23:10:02;;;;;;;9.47;8.57;;;16.90;94.60;;;;;;4771078;30;20476;-70
2021/10/04 23:12:37;;;;;;;10.60;8.77;;;16.90;94.70;;;;;;4771056;30;20483;-70
2021/10/04 23:15:05;;;;;;;12.00;8.80;;;16.80;94.70;;;;;;4786115;30;20479;-70
2021/10/04 23:17:37;;;;;;;10.50;8.67;;;16.80;94.80;;;;;;4771033;30;20439;-70
2021/10/04 23:20:05;;;;;;;11.00;8.90;;;16.70;94.90;;;;;;4770960;30;20568;-70
2021/10/04 23:22:32;;;;;;;12.30;9.33;;;16.60;94.90;;;;;;4770897;30;20424;-70
2021/10/04 23:24:59;;;;;;;10.10;8.47;;;16.60;95.00;;;;;;4770865;30;20460;-70
2021/10/04 23:27:28;;;;;;;12.13;9.17;;;16.50;95.10;;;;;;4770942;30;20439;-70
2021/10/04 23:29:54;;;;;;;10.30;8.70;;;16.50;95.20;;;;;;4785635;30;20880;-70
2021/10/04 23:32:21;;;;;;;11.20;8.63;;;16.40;95.20;;;;;;4770614;30;20575;-70
2021/10/04 23:34:47;;;;;;;9.90;8.67;;;16.40;95.30;;;;;;4770576;30;21043;-70
2021/10/04 23:37:14;;;;;;;11.40;8.53;;;16.30;95.30;;;;;;4770683;30;20440;-70
2021/10/04 23:39:41;;;;;;;10.10;8.17;;;16.30;95.40;;;;;;4770643;30;20479;-70
2021/10/04 23:42:10;;;;;;;10.43;9.20;;;16.30;95.40;;;;;;4769703;30;20439;-70
2021/10/04 23:44:42;;;;;;;13.60;9.00;;;16.30;95.50;;;;;;4770577;30;20945;-70
2021/10/04 23:47:09;;;;;;;11.60;10.40;;;16.30;95.50;;;;;;4770616;30;20918;-70
2021/10/04 23:49:37;;;;;;;9.57;8.57;;;16.20;95.50;;;;;;4770307;30;20475;-70
2021/10/04 23:52:04;;;;;;;10.30;9.07;;;16.20;95.60;;;;;;4770327;30;20494;-70